Capitol Logistics 243


KRFD
Chicago/Rockford International Airport
Rockford, Illinois, US
KHSV
Huntsville International Airport
Huntsville, Alabama, US

Activity Log

Date Flight Route Aircraft Duration
07/27/2019 CPX243 JOT EMBRR BNA RQZ B763 1h 25m
07/17/2019 CPX243 JOT EMBRR BNA RQZ B763 1h 24m
06/26/2019 CPX243 JOT EMBRR BNA RQZ B763 1h 25m
02/03/2019 CPX243 PNT SALMS B763 1h 16m

Route Details

Aircraft Information
Primary: Boeing 767-300BDSF
Backup: Not Available
Route Data
Distance: 466nm
Sched. Duration: 1h 19m
Avg. Duration: 1h 22m (+3m)
Times Flown: 4
Recm'd Route: JOT EMBRR BNA RQZ
Planned Altitude: 35,000ft
Origin Wx: KRFD 312054Z 18020G30KT 10SM FEW120 16/03 A2993 RMK AO2 PK WND 18032/2033 SLP138 T01610028 56052
Dest. Wx: KHSV 312053Z 12008KT 10SM FEW250 19/09 A3021 RMK AO2 SLP227 T01940089 56023 $
Notes:

Financial History
Total Freight: 339,198lbs
Average Load: 84,800lbs/flt
Fuel Used: 56,862lbs
Avg. Fuel Used: 14,216lbs/flt
Fuel Expense: $40,208
Avg. Fuel Expense: $10,052
Avg. Fuel Cost: $0.71/lbs
Total Gross Income: $430,781
Pilot Pay: $676
Total Expenses: $46,732
Total Revenue: $342,735
Average Revenue: $107,695.36